Time;durP1;ratioP1;P1;durP2;ratioP2;P2;SDS_P1;SDS_P2;PMS_P1;PMS_P2;Temp;Humidity;BMP_temperature;BMP_pressure;BME280_temperature;BME280_humidity;BME280_pressure;Samples;Min_cycle;Max_cycle;Signal;HPM_P1;HPM_P2
2021/05/04 00:01:28;;;;;;;11.50;10.35;;;5.50;99.90;;;;;;5129826;27;20334;-71
2021/05/04 00:03:55;;;;;;;10.82;9.82;;;5.50;99.90;;;;;;5130084;27;20221;-71
2021/05/04 00:06:21;;;;;;;12.00;10.15;;;5.40;99.90;;;;;;5129946;27;20291;-72
2021/05/04 00:08:48;;;;;;;10.60;9.65;;;5.50;99.90;;;;;;5130185;27;20293;-71
2021/05/04 00:11:14;;;;;;;11.52;10.43;;;5.50;99.90;;;;;;5130306;27;20202;-71
2021/05/04 00:13:41;;;;;;;10.05;8.98;;;5.60;99.90;;;;;;5129935;27;20203;-71
2021/05/04 00:16:07;;;;;;;10.68;9.65;;;5.70;99.90;;;;;;5129320;27;20206;-71
2021/05/04 00:18:33;;;;;;;10.60;9.50;;;5.60;99.90;;;;;;5130039;27;20255;-71
2021/05/04 00:21:01;;;;;;;9.73;8.82;;;5.60;99.90;;;;;;5130393;27;20243;-71
2021/05/04 00:23:27;;;;;;;12.57;9.77;;;5.60;99.90;;;;;;5130020;27;20202;-71
2021/05/04 00:25:53;;;;;;;10.63;9.63;;;5.60;99.90;;;;;;5128693;27;20709;-71
2021/05/04 00:28:20;;;;;;;9.88;8.95;;;5.50;99.90;;;;;;5129590;27;20288;-71
2021/05/04 00:30:46;;;;;;;9.82;8.82;;;5.60;99.90;;;;;;5129512;27;20203;-71
2021/05/04 00:33:12;;;;;;;10.63;9.52;;;5.50;99.90;;;;;;5129738;27;20201;-71
2021/05/04 00:35:38;;;;;;;9.57;8.68;;;5.50;99.90;;;;;;5128705;27;20649;-71
2021/05/04 00:38:06;;;;;;;9.95;9.00;;;5.50;99.90;;;;;;5129554;27;20199;-71
2021/05/04 00:40:32;;;;;;;9.43;8.52;;;5.40;99.90;;;;;;5129836;27;20226;-71
2021/05/04 00:42:59;;;;;;;10.65;9.63;;;5.50;99.90;;;;;;5129574;27;20202;-71
2021/05/04 00:45:25;;;;;;;10.50;9.52;;;5.70;99.90;;;;;;5127796;27;20302;-71
2021/05/04 00:47:51;;;;;;;10.10;9.15;;;5.80;99.90;;;;;;5128609;27;20627;-71
2021/05/04 00:50:18;;;;;;;9.13;8.27;;;5.70;99.90;;;;;;5129200;27;20282;-71
2021/05/04 00:52:44;;;;;;;9.43;8.50;;;5.70;99.90;;;;;;5128844;27;20247;-70
2021/05/04 00:55:12;;;;;;;9.95;9.05;;;5.60;99.90;;;;;;5128554;27;20282;-71
2021/05/04 00:57:40;;;;;;;10.32;9.25;;;5.60;99.90;;;;;;5128606;27;20282;-71
2021/05/04 01:00:08;;;;;;;9.40;8.43;;;5.50;99.90;;;;;;5129567;27;20227;-71
2021/05/04 01:02:35;;;;;;;11.15;10.00;;;5.40;99.90;;;;;;5127958;27;20206;-71
2021/05/04 01:05:02;;;;;;;9.50;8.70;;;5.30;99.90;;;;;;5128129;27;20199;-71
2021/05/04 01:07:28;;;;;;;9.63;8.68;;;5.50;99.90;;;;;;5129193;27;20616;-71
2021/05/04 01:09:55;;;;;;;12.88;10.35;;;5.40;99.90;;;;;;5129096;27;20209;-71
2021/05/04 01:12:22;;;;;;;11.20;10.10;;;5.40;99.90;;;;;;5129270;27;20207;-71
2021/05/04 01:14:49;;;;;;;13.82;12.52;;;5.40;99.90;;;;;;5127511;27;20203;-71
2021/05/04 01:17:15;;;;;;;14.25;12.85;;;5.30;99.90;;;;;;5128857;27;20587;-71
2021/05/04 01:19:41;;;;;;;15.73;12.20;;;5.20;99.90;;;;;;5128563;27;20229;-71
2021/05/04 01:22:09;;;;;;;11.75;10.48;;;5.20;99.90;;;;;;5128842;27;20226;-71
2021/05/04 01:24:36;;;;;;;11.25;10.15;;;5.30;99.90;;;;;;5128034;27;20199;-71
2021/05/04 01:27:03;;;;;;;10.57;9.57;;;5.30;99.90;;;;;;5120086;27;20199;-71
2021/05/04 01:29:29;;;;;;;13.73;9.75;;;5.30;99.90;;;;;;5128953;27;20620;-71
2021/05/04 01:31:56;;;;;;;10.63;9.63;;;5.40;99.90;;;;;;5127780;27;20198;-71
2021/05/04 01:34:23;;;;;;;10.82;9.77;;;5.20;99.90;;;;;;5128603;27;20231;-71
2021/05/04 01:36:49;;;;;;;10.70;9.70;;;5.10;99.90;;;;;;5128286;27;20278;-71
2021/05/04 01:39:17;;;;;;;11.48;10.27;;;5.00;99.90;;;;;;5128687;27;20214;-71
2021/05/04 01:41:44;;;;;;;11.52;10.35;;;4.90;99.90;;;;;;5126466;27;20238;-71
2021/05/04 01:44:11;;;;;;;12.05;10.73;;;4.80;99.90;;;;;;5127726;27;20199;-71
2021/05/04 01:46:37;;;;;;;12.95;10.02;;;4.80;99.90;;;;;;5127695;27;20660;-72
2021/05/04 01:49:06;;;;;;;9.95;9.13;;;4.90;99.90;;;;;;5128221;27;20266;-72
2021/05/04 01:51:32;;;;;;;10.63;9.52;;;5.00;99.90;;;;;;5127899;27;20206;-71
2021/05/04 01:54:00;;;;;;;9.65;8.75;;;5.10;99.90;;;;;;5128074;27;20648;-71
2021/05/04 01:56:27;;;;;;;9.32;8.43;;;5.20;99.90;;;;;;5128387;27;20701;-71
2021/05/04 01:58:56;;;;;;;8.43;7.68;;;5.20;99.90;;;;;;5127133;27;20573;-71
2021/05/04 02:01:22;;;;;;;10.38;8.70;;;5.20;99.90;;;;;;5127862;27;20237;-71
2021/05/04 02:03:48;;;;;;;9.32;8.32;;;5.30;99.90;;;;;;5126902;27;20206;-71
2021/05/04 02:06:15;;;;;;;9.57;8.60;;;5.30;99.90;;;;;;5127733;27;20647;-72
2021/05/04 02:08:41;;;;;;;9.75;8.75;;;5.40;99.90;;;;;;5127945;27;20301;-71
2021/05/04 02:11:07;;;;;;;9.60;8.80;;;5.40;99.90;;;;;;5127678;27;20202;-71
2021/05/04 02:13:34;;;;;;;10.93;9.85;;;5.40;99.90;;;;;;5127329;27;20203;-71
2021/05/04 02:16:01;;;;;;;9.45;8.65;;;5.50;99.90;;;;;;5127191;27;20297;-71
2021/05/04 02:18:27;;;;;;;12.82;9.07;;;5.50;99.90;;;;;;5128004;27;20207;-71
2021/05/04 02:20:54;;;;;;;9.00;8.20;;;5.50;99.90;;;;;;5126502;27;20219;-70
2021/05/04 02:23:20;;;;;;;11.10;9.48;;;5.30;99.90;;;;;;5127769;27;20194;-71
2021/05/04 02:25:49;;;;;;;10.02;8.90;;;5.30;99.90;;;;;;5127167;27;20306;-71
2021/05/04 02:28:16;;;;;;;10.15;9.15;;;5.30;99.90;;;;;;5127499;27;20213;-71
2021/05/04 02:30:44;;;;;;;10.00;8.90;;;5.30;99.90;;;;;;5127222;27;20672;-71
2021/05/04 02:33:10;;;;;;;8.40;7.50;;;5.40;99.90;;;;;;5126896;27;20207;-71
2021/05/04 02:35:37;;;;;;;9.52;8.65;;;5.50;99.90;;;;;;5127257;27;20213;-71
2021/05/04 02:38:03;;;;;;;8.50;7.57;;;5.70;99.90;;;;;;5127622;27;20347;-71
2021/05/04 02:40:29;;;;;;;9.55;8.40;;;5.60;99.90;;;;;;5127082;27;20229;-71
2021/05/04 02:42:56;;;;;;;9.70;8.80;;;5.50;99.90;;;;;;5127305;27;20210;-71
2021/05/04 02:45:22;;;;;;;9.50;8.60;;;5.40;99.90;;;;;;5127142;28;20221;-71
2021/05/04 02:47:49;;;;;;;10.50;9.18;;;5.30;99.90;;;;;;5126996;28;20215;-71
2021/05/04 02:50:16;;;;;;;9.45;8.60;;;5.20;99.90;;;;;;5126616;28;20203;-71
2021/05/04 02:52:42;;;;;;;9.70;8.77;;;5.30;99.90;;;;;;5127493;28;20301;-71
2021/05/04 02:55:09;;;;;;;9.68;8.75;;;5.20;99.90;;;;;;5127023;28;20452;-70
2021/05/04 02:57:35;;;;;;;10.80;9.70;;;5.20;99.90;;;;;;5127048;28;20206;-71
2021/05/04 03:00:03;;;;;;;8.75;8.00;;;5.20;99.90;;;;;;5127406;28;20666;-71
2021/05/04 03:02:29;;;;;;;9.35;8.55;;;5.30;99.90;;;;;;5127207;28;20191;-71
2021/05/04 03:04:56;;;;;;;9.60;8.70;;;5.20;99.90;;;;;;5126703;28;20203;-71
2021/05/04 03:07:22;;;;;;;10.07;9.18;;;5.20;99.90;;;;;;5127127;28;20289;-71
2021/05/04 03:09:49;;;;;;;10.13;9.00;;;5.20;99.90;;;;;;5126699;28;20207;-71
2021/05/04 03:12:15;;;;;;;7.47;6.82;;;5.20;99.90;;;;;;5126451;28;20294;-70
2021/05/04 03:14:41;;;;;;;8.90;8.00;;;5.20;99.90;;;;;;5127137;28;20233;-71
2021/05/04 03:17:07;;;;;;;9.75;8.85;;;5.50;99.90;;;;;;5126765;28;20203;-71
2021/05/04 03:19:34;;;;;;;9.68;8.27;;;5.70;99.90;;;;;;5126560;28;20230;-71
2021/05/04 03:22:01;;;;;;;8.77;7.97;;;5.80;99.90;;;;;;5126680;28;20290;-72
2021/05/04 03:24:27;;;;;;;9.73;8.73;;;5.90;99.90;;;;;;5127963;27;20351;-71
2021/05/04 03:26:54;;;;;;;8.30;7.50;;;5.80;99.90;;;;;;5130673;27;20206;-72
2021/05/04 03:29:20;;;;;;;9.45;8.65;;;5.70;99.90;;;;;;5130778;27;20225;-71
2021/05/04 03:31:46;;;;;;;9.45;8.55;;;5.70;99.90;;;;;;5130984;27;20255;-71
2021/05/04 03:34:12;;;;;;;8.60;7.90;;;5.70;99.90;;;;;;5130174;27;20207;-71
2021/05/04 03:36:39;;;;;;;15.57;7.70;;;5.80;99.90;;;;;;5130492;27;20206;-71
2021/05/04 03:39:06;;;;;;;8.35;7.55;;;5.90;99.90;;;;;;5131170;27;20195;-71
2021/05/04 03:41:33;;;;;;;9.73;8.82;;;5.90;99.90;;;;;;5129319;27;20318;-71
2021/05/04 03:43:59;;;;;;;8.73;8.02;;;6.00;99.90;;;;;;5130529;27;20793;-71
2021/05/04 03:46:26;;;;;;;10.02;8.80;;;5.90;99.90;;;;;;5130538;27;20199;-71
2021/05/04 03:48:52;;;;;;;9.05;8.20;;;5.90;99.90;;;;;;5130099;27;20221;-71
2021/05/04 03:51:19;;;;;;;9.05;8.25;;;5.90;99.90;;;;;;5129571;27;20213;-71
2021/05/04 03:53:45;;;;;;;8.50;7.80;;;5.90;99.90;;;;;;5130777;27;20203;-72
2021/05/04 03:56:12;;;;;;;8.02;7.22;;;5.90;99.90;;;;;;5129853;27;20192;-71
2021/05/04 03:58:39;;;;;;;11.10;6.82;;;6.00;99.90;;;;;;5130186;27;20213;-71
2021/05/04 04:01:05;;;;;;;8.27;7.57;;;5.90;99.90;;;;;;5129972;27;20226;-71
2021/05/04 04:03:31;;;;;;;8.35;7.55;;;5.90;99.90;;;;;;5130299;27;20667;-71
2021/05/04 04:05:58;;;;;;;7.38;6.68;;;6.00;99.90;;;;;;5129994;27;20210;-71
2021/05/04 04:08:24;;;;;;;7.40;6.70;;;6.00;99.90;;;;;;5130304;27;20199;-71
2021/05/04 04:10:50;;;;;;;8.07;7.30;;;6.10;99.90;;;;;;5129574;27;20203;-71
2021/05/04 04:13:18;;;;;;;8.02;7.22;;;6.10;99.90;;;;;;5130066;27;20746;-71
2021/05/04 04:15:45;;;;;;;8.18;7.40;;;6.30;99.90;;;;;;5129791;27;20298;-71
2021/05/04 04:18:11;;;;;;;7.05;6.45;;;6.50;99.70;;;;;;5130025;27;20233;-71
2021/05/04 04:20:37;;;;;;;6.40;5.80;;;6.60;98.90;;;;;;5129550;27;20234;-71
2021/05/04 04:23:04;;;;;;;5.90;5.40;;;6.80;98.40;;;;;;5130269;27;20294;-71
2021/05/04 04:25:30;;;;;;;6.00;5.53;;;7.00;97.80;;;;;;5129862;27;20223;-72
2021/05/04 04:27:57;;;;;;;5.93;5.30;;;7.10;97.50;;;;;;5130366;27;20209;-71
2021/05/04 04:30:25;;;;;;;5.30;4.80;;;7.20;96.90;;;;;;5130514;27;20203;-72
2021/05/04 04:32:51;;;;;;;5.88;5.38;;;7.30;96.50;;;;;;5129921;27;20206;-72
2021/05/04 04:35:18;;;;;;;6.38;5.75;;;7.50;96.20;;;;;;5131046;27;20278;-72
2021/05/04 04:37:45;;;;;;;5.40;5.00;;;7.60;96.00;;;;;;5135520;27;20282;-71
2021/05/04 04:40:12;;;;;;;5.15;4.75;;;7.70;95.60;;;;;;5129789;27;20199;-72
2021/05/04 04:42:38;;;;;;;4.93;4.50;;;7.80;95.00;;;;;;5129827;27;20294;-71
2021/05/04 04:45:06;;;;;;;5.70;5.13;;;8.00;94.80;;;;;;5130244;27;20309;-72
2021/05/04 04:47:33;;;;;;;5.47;5.05;;;8.00;94.50;;;;;;5129692;27;20743;-72
2021/05/04 04:50:00;;;;;;;6.40;5.90;;;8.10;94.50;;;;;;5128705;27;20306;-71
2021/05/04 04:52:26;;;;;;;5.15;4.75;;;8.10;94.50;;;;;;5129460;27;20285;-72
2021/05/04 04:54:53;;;;;;;5.38;4.97;;;8.30;94.10;;;;;;5128831;27;20218;-72
2021/05/04 04:57:20;;;;;;;4.50;4.20;;;8.30;94.10;;;;;;5129490;27;20310;-71
2021/05/04 04:59:48;;;;;;;5.07;4.68;;;8.30;94.10;;;;;;5128863;27;20210;-71
2021/05/04 05:02:15;;;;;;;5.20;4.72;;;8.40;93.80;;;;;;5129012;27;20234;-71
2021/05/04 05:04:43;;;;;;;4.95;4.43;;;8.50;93.40;;;;;;5128578;27;20298;-71
2021/05/04 05:07:09;;;;;;;5.65;5.25;;;8.60;93.30;;;;;;5128081;27;20289;-72
2021/05/04 05:09:36;;;;;;;5.30;4.80;;;8.80;92.60;;;;;;5127942;27;20282;-72
2021/05/04 05:12:03;;;;;;;5.05;4.65;;;8.80;92.70;;;;;;5129229;27;20252;-72
2021/05/04 05:14:30;;;;;;;4.88;4.47;;;8.80;92.70;;;;;;5128242;27;20207;-71
2021/05/04 05:16:56;;;;;;;5.53;5.07;;;8.90;92.60;;;;;;5128372;27;20710;-67
2021/05/04 05:19:22;;;;;;;4.72;4.32;;;9.00;92.00;;;;;;5128816;27;20302;-70
2021/05/04 05:21:50;;;;;;;4.95;4.38;;;8.90;92.30;;;;;;5128571;27;20593;-69
2021/05/04 05:24:17;;;;;;;4.22;3.92;;;9.00;92.50;;;;;;5128334;27;20235;-69
2021/05/04 05:26:43;;;;;;;4.75;4.35;;;9.10;91.90;;;;;;5127778;27;20199;-69
2021/05/04 05:29:10;;;;;;;5.10;4.75;;;9.10;91.80;;;;;;5128298;27;20775;-70
2021/05/04 05:31:36;;;;;;;3.90;3.60;;;9.10;92.40;;;;;;5128526;27;20213;-70
2021/05/04 05:34:03;;;;;;;4.57;4.28;;;9.10;92.10;;;;;;5128042;27;20203;-69
2021/05/04 05:36:30;;;;;;;4.63;4.32;;;9.10;92.30;;;;;;5127372;27;20249;-70
2021/05/04 05:38:57;;;;;;;5.03;4.63;;;9.20;91.90;;;;;;5128510;27;20740;-69
2021/05/04 05:41:23;;;;;;;3.88;3.60;;;9.30;91.60;;;;;;5128043;27;20711;-70
2021/05/04 05:43:50;;;;;;;4.82;4.43;;;9.40;91.10;;;;;;5128082;27;20202;-70
2021/05/04 05:46:16;;;;;;;4.85;4.55;;;9.40;91.80;;;;;;5127703;27;20199;-70
2021/05/04 05:48:43;;;;;;;4.32;4.03;;;9.50;91.30;;;;;;5127585;27;20215;-69
2021/05/04 05:51:10;;;;;;;5.25;4.85;;;9.60;90.90;;;;;;5127740;27;20264;-69
2021/05/04 05:53:36;;;;;;;4.45;4.15;;;9.60;91.40;;;;;;5128095;27;20676;-69
2021/05/04 05:56:04;;;;;;;4.00;3.60;;;9.60;91.30;;;;;;5121958;27;20206;-70
2021/05/04 05:58:32;;;;;;;4.43;4.03;;;9.60;90.90;;;;;;5121661;27;20929;-70
2021/05/04 06:00:59;;;;;;;4.90;4.50;;;9.60;91.20;;;;;;5138847;27;20223;-70
2021/05/04 06:03:27;;;;;;;4.80;4.40;;;9.70;91.00;;;;;;5128987;27;20207;-69
2021/05/04 06:05:54;;;;;;;4.70;4.30;;;9.90;91.70;;;;;;5117456;27;20290;-70
2021/05/04 06:08:21;;;;;;;6.15;4.28;;;10.10;90.70;;;;;;5130215;27;20655;-70
2021/05/04 06:10:49;;;;;;;4.43;4.10;;;10.20;90.90;;;;;;5108747;27;20248;-70
2021/05/04 06:13:17;;;;;;;4.55;4.15;;;10.30;89.80;;;;;;5142133;27;20206;-69
2021/05/04 06:15:45;;;;;;;5.72;4.53;;;10.50;89.60;;;;;;5134973;27;20256;-69
2021/05/04 06:18:13;;;;;;;5.10;4.70;;;10.50;88.80;;;;;;5124915;27;20614;-70
2021/05/04 06:20:41;;;;;;;4.10;3.80;;;10.50;90.20;;;;;;5143317;27;20230;-70
2021/05/04 06:23:08;;;;;;;3.58;3.28;;;10.60;89.50;;;;;;5146825;27;20193;-69
2021/05/04 06:25:35;;;;;;;4.57;4.18;;;10.70;89.30;;;;;;5130891;27;20289;-70
2021/05/04 06:28:05;;;;;;;5.18;4.45;;;10.80;88.60;;;;;;5135831;27;20209;-69
2021/05/04 06:30:35;;;;;;;4.68;4.30;;;11.00;90.00;;;;;;5142913;27;20626;-70
2021/05/04 06:33:03;;;;;;;4.22;3.92;;;11.20;90.50;;;;;;5126328;27;20299;-69
2021/05/04 06:35:29;;;;;;;5.13;4.35;;;11.30;89.00;;;;;;5123266;27;20255;-69
2021/05/04 06:37:56;;;;;;;4.32;3.95;;;11.60;88.20;;;;;;5122617;27;20204;-70
2021/05/04 06:40:22;;;;;;;4.43;4.10;;;11.70;88.80;;;;;;5118224;27;22049;-70
2021/05/04 06:42:49;;;;;;;4.68;4.35;;;11.90;88.60;;;;;;5137588;27;20289;-75
2021/05/04 06:45:15;;;;;;;4.78;4.38;;;12.10;87.70;;;;;;5125824;27;20222;-74
2021/05/04 06:47:42;;;;;;;4.20;3.80;;;12.30;85.80;;;;;;5115674;27;20562;-77
2021/05/04 06:50:09;;;;;;;3.33;3.13;;;12.50;86.50;;;;;;5123108;27;20289;-74
2021/05/04 06:52:36;;;;;;;4.50;4.10;;;12.60;84.80;;;;;;5122972;28;20210;-73
2021/05/04 06:55:03;;;;;;;3.92;3.53;;;12.80;84.80;;;;;;5117040;28;20210;-70
2021/05/04 06:57:29;;;;;;;4.10;3.80;;;13.00;84.70;;;;;;5120477;28;20211;-70
2021/05/04 06:59:55;;;;;;;3.75;3.45;;;13.10;83.30;;;;;;5118418;27;20563;-70
2021/05/04 07:02:21;;;;;;;3.85;3.55;;;13.20;83.20;;;;;;5129429;27;20368;-70
2021/05/04 07:04:49;;;;;;;3.90;3.58;;;13.30;81.90;;;;;;5127873;27;20220;-70
2021/05/04 07:07:15;;;;;;;4.55;3.33;;;13.20;80.90;;;;;;5122485;27;20214;-70
2021/05/04 07:09:41;;;;;;;3.65;3.35;;;13.30;82.00;;;;;;5123400;27;20209;-70
2021/05/04 07:12:09;;;;;;;3.42;3.15;;;13.40;81.90;;;;;;5125513;27;20218;-70
2021/05/04 07:14:35;;;;;;;3.72;3.42;;;13.50;80.20;;;;;;5124225;27;20293;-71
2021/05/04 07:17:03;;;;;;;3.70;3.40;;;13.60;78.60;;;;;;5125459;27;20294;-69
2021/05/04 07:19:30;;;;;;;3.45;3.25;;;13.90;76.70;;;;;;5126239;27;20211;-71
2021/05/04 07:21:57;;;;;;;3.10;2.90;;;14.00;75.30;;;;;;5125509;27;20252;-71
2021/05/04 07:24:23;;;;;;;4.15;3.50;;;14.40;74.80;;;;;;5121960;27;20195;-70
2021/05/04 07:26:50;;;;;;;3.78;3.47;;;14.80;74.50;;;;;;5125370;27;20234;-70
2021/05/04 07:29:16;;;;;;;2.83;2.63;;;15.20;73.70;;;;;;5119428;27;20210;-70
2021/05/04 07:31:43;;;;;;;3.85;3.55;;;15.40;72.30;;;;;;5127909;27;20297;-70
2021/05/04 07:34:10;;;;;;;3.42;3.17;;;15.70;70.10;;;;;;5128462;27;20799;-70
2021/05/04 07:36:36;;;;;;;3.00;2.80;;;16.00;69.80;;;;;;5124376;27;20275;-70
2021/05/04 07:39:04;;;;;;;3.70;3.40;;;16.30;69.60;;;;;;5123461;27;20203;-70
2021/05/04 07:41:31;;;;;;;4.45;2.90;;;16.30;70.10;;;;;;5121721;27;20268;-71
2021/05/04 07:43:58;;;;;;;3.00;2.80;;;16.30;68.40;;;;;;5123391;27;20857;-70
2021/05/04 07:46:24;;;;;;;3.83;3.53;;;16.50;69.60;;;;;;5126696;27;20207;-71
2021/05/04 07:48:50;;;;;;;3.17;2.97;;;16.50;68.00;;;;;;5124905;27;20207;-70
2021/05/04 07:51:17;;;;;;;3.10;2.90;;;16.60;67.10;;;;;;5127415;27;20332;-71
2021/05/04 07:53:43;;;;;;;3.03;2.83;;;16.60;67.40;;;;;;5125251;27;20211;-71
2021/05/04 07:56:10;;;;;;;3.70;3.40;;;16.70;68.50;;;;;;5130474;27;20198;-71
2021/05/04 07:58:37;;;;;;;3.58;2.95;;;17.00;67.10;;;;;;5128285;27;20199;-70
2021/05/04 08:01:04;;;;;;;2.80;2.60;;;17.30;67.40;;;;;;5122392;27;20754;-71
2021/05/04 08:03:31;;;;;;;3.28;3.00;;;17.40;65.80;;;;;;5127199;27;20209;-71
2021/05/04 08:05:58;;;;;;;3.20;3.00;;;17.50;65.70;;;;;;5117299;27;20203;-70
2021/05/04 08:08:24;;;;;;;3.00;2.80;;;17.10;63.20;;;;;;5132329;27;20221;-69
2021/05/04 08:10:52;;;;;;;3.40;3.10;;;17.40;66.10;;;;;;5126899;27;20203;-70
2021/05/04 08:13:20;;;;;;;3.28;3.08;;;17.50;66.90;;;;;;5128216;27;20534;-70
2021/05/04 08:15:48;;;;;;;3.33;3.13;;;18.00;64.20;;;;;;5120197;27;20196;-70
2021/05/04 08:18:16;;;;;;;3.70;2.65;;;18.40;62.40;;;;;;5134486;27;20571;-69
2021/05/04 08:20:48;;;;;;;3.00;2.47;;;18.50;63.00;;;;;;5136984;27;20237;-71
2021/05/04 08:23:15;;;;;;;2.97;2.78;;;18.40;62.30;;;;;;5128733;27;20191;-71
2021/05/04 08:25:43;;;;;;;3.30;3.00;;;18.40;61.00;;;;;;5131423;27;20658;-70
2021/05/04 08:28:09;;;;;;;3.38;3.08;;;18.10;61.50;;;;;;5126571;27;20199;-70
2021/05/04 08:30:36;;;;;;;3.20;3.00;;;18.10;61.00;;;;;;5127823;27;20279;-69
2021/05/04 08:33:03;;;;;;;3.15;2.95;;;17.80;59.90;;;;;;5133273;27;20808;-70
2021/05/04 08:35:30;;;;;;;3.08;2.88;;;17.70;62.50;;;;;;5140318;27;20593;-72
2021/05/04 08:37:57;;;;;;;3.03;2.83;;;17.50;62.30;;;;;;5128735;27;20199;-71
2021/05/04 08:40:25;;;;;;;3.17;2.88;;;17.60;62.50;;;;;;5123452;27;20214;-70
2021/05/04 08:42:52;;;;;;;3.33;3.03;;;17.40;61.90;;;;;;5128801;27;20207;-71
2021/05/04 08:45:18;;;;;;;4.35;2.88;;;16.90;61.20;;;;;;5123819;27;20203;-72
2021/05/04 08:47:47;;;;;;;3.45;3.25;;;16.60;61.40;;;;;;5125988;27;20233;-71
2021/05/04 08:50:15;;;;;;;6.03;3.40;;;16.70;62.70;;;;;;5121583;27;20203;-72
2021/05/04 08:52:42;;;;;;;3.22;2.95;;;16.60;62.30;;;;;;5127231;27;20195;-72
2021/05/04 08:55:09;;;;;;;3.30;3.10;;;16.60;61.70;;;;;;5118589;27;20199;-72
2021/05/04 08:57:37;;;;;;;3.05;2.85;;;16.70;63.10;;;;;;5121070;27;20259;-71
2021/05/04 09:00:05;;;;;;;5.35;3.70;;;16.70;61.50;;;;;;5122148;27;20686;-71
2021/05/04 09:02:36;;;;;;;3.38;3.17;;;16.60;62.00;;;;;;5126384;27;20723;-72
2021/05/04 09:05:15;;;;;;;3.75;3.40;;;16.70;63.60;;;;;;5123118;27;20200;-72
2021/05/04 09:07:42;;;;;;;4.53;3.55;;;16.70;63.00;;;;;;5127147;27;20218;-70
2021/05/04 09:10:22;;;;;;;4.78;3.30;;;16.80;63.70;;;;;;5131303;27;20205;-70
2021/05/04 09:12:53;;;;;;;7.10;3.80;;;18.10;62.60;;;;;;5136534;27;20199;-70
2021/05/04 09:18:37;;;;;;;3.70;3.40;;;20.20;57.50;;;;;;5105461;27;20671;-71
2021/05/04 09:21:06;;;;;;;4.47;4.07;;;21.20;57.10;;;;;;5116192;27;20766;-72
2021/05/04 09:23:33;;;;;;;3.60;3.30;;;20.90;56.40;;;;;;5126290;27;20701;-71
2021/05/04 09:25:59;;;;;;;3.13;2.93;;;20.20;55.80;;;;;;5126539;27;21177;-72
2021/05/04 09:28:25;;;;;;;2.63;2.43;;;19.60;56.40;;;;;;5119013;27;21087;-72
2021/05/04 09:30:52;;;;;;;3.23;3.03;;;19.30;56.20;;;;;;5127646;27;20686;-72
2021/05/04 09:33:19;;;;;;;3.40;2.60;;;19.50;57.40;;;;;;5127125;27;20632;-72
2021/05/04 09:35:45;;;;;;;2.90;2.70;;;19.70;57.40;;;;;;5114938;27;21160;-72
2021/05/04 09:38:14;;;;;;;3.00;2.80;;;19.60;57.60;;;;;;5128379;27;20635;-71
2021/05/04 09:40:41;;;;;;;3.07;2.70;;;19.80;58.30;;;;;;5122259;27;20672;-72
2021/05/04 09:43:10;;;;;;;2.60;2.40;;;20.20;56.00;;;;;;5118774;27;20781;-72
2021/05/04 09:45:40;;;;;;;2.70;2.50;;;20.50;56.00;;;;;;5126203;27;20628;-72
2021/05/04 09:48:18;;;;;;;2.40;2.30;;;20.40;56.60;;;;;;5117093;27;20659;-72
2021/05/04 09:51:01;;;;;;;2.97;2.77;;;20.30;56.00;;;;;;5117124;27;20658;-72
2021/05/04 09:53:45;;;;;;;2.67;2.47;;;21.30;56.80;;;;;;5123354;27;20635;-72
2021/05/04 09:56:13;;;;;;;3.53;2.70;;;21.80;55.60;;;;;;5117396;27;20636;-74
2021/05/04 09:58:41;;;;;;;4.33;2.83;;;21.50;54.00;;;;;;5129154;27;20636;-72
2021/05/04 10:01:10;;;;;;;2.67;2.57;;;21.10;56.20;;;;;;5125183;27;20729;-73
2021/05/04 10:03:41;;;;;;;3.50;2.60;;;21.20;55.40;;;;;;5125974;27;20663;-72
2021/05/04 10:06:10;;;;;;;3.30;2.60;;;21.30;54.30;;;;;;5123019;27;20628;-73
2021/05/04 10:08:38;;;;;;;3.10;2.87;;;21.00;54.80;;;;;;5125414;27;20727;-74
2021/05/04 10:11:06;;;;;;;3.80;2.80;;;20.80;56.30;;;;;;5115012;27;20630;-72
2021/05/04 10:13:34;;;;;;;3.57;3.13;;;20.40;55.10;;;;;;5125096;27;20777;-73
2021/05/04 10:16:02;;;;;;;4.60;2.83;;;19.90;55.00;;;;;;5118724;27;20624;-71
2021/05/04 10:18:29;;;;;;;3.00;2.77;;;19.60;56.00;;;;;;5125374;27;21636;-72
2021/05/04 10:20:58;;;;;;;4.70;3.00;;;19.30;56.40;;;;;;5125109;27;21436;-72
2021/05/04 10:23:26;;;;;;;2.80;2.60;;;19.60;58.10;;;;;;5118244;27;20984;-76
2021/05/04 10:25:54;;;;;;;2.80;2.60;;;19.90;57.60;;;;;;5113704;27;20636;-72
2021/05/04 10:28:22;;;;;;;2.80;2.60;;;20.00;55.00;;;;;;5129432;27;20640;-73
2021/05/04 10:30:49;;;;;;;2.47;2.37;;;19.90;56.00;;;;;;5119710;27;20640;-75
2021/05/04 10:33:36;;;;;;;3.00;2.63;;;20.10;56.50;;;;;;5116236;27;20637;-71
2021/05/04 10:36:03;;;;;;;3.07;2.87;;;20.10;56.60;;;;;;5115774;27;21535;-73
2021/05/04 10:38:52;;;;;;;3.00;2.80;;;20.10;55.70;;;;;;5115605;27;21769;-72
2021/05/04 10:41:20;;;;;;;3.23;2.93;;;19.70;55.40;;;;;;5124403;27;20664;-72
2021/05/04 10:43:57;;;;;;;2.90;2.70;;;19.50;55.40;;;;;;5122122;27;20640;-72
2021/05/04 10:46:38;;;;;;;2.87;2.70;;;19.60;57.40;;;;;;5119645;27;20639;-71
2021/05/04 10:49:05;;;;;;;3.13;2.93;;;19.40;56.90;;;;;;5114547;28;20701;-71
2021/05/04 10:51:50;;;;;;;3.30;3.00;;;19.70;57.00;;;;;;5120164;28;20728;-72
2021/05/04 10:54:18;;;;;;;3.27;2.97;;;19.70;55.90;;;;;;5124730;28;20981;-72
2021/05/04 10:56:47;;;;;;;2.97;2.77;;;19.40;56.00;;;;;;5124980;28;20640;-72
2021/05/04 10:59:30;;;;;;;4.77;2.80;;;19.50;56.80;;;;;;5110093;28;20636;-74
2021/05/04 11:02:30;;;;;;;2.53;2.37;;;19.20;56.40;;;;;;5118120;27;20680;-71
2021/05/04 11:04:58;;;;;;;9.30;2.55;;;19.20;58.00;;;;;;5118714;28;20621;-71
2021/05/04 11:07:58;;;;;;;3.53;2.95;;;18.90;57.20;;;;;;5115768;28;20286;-74
2021/05/04 11:10:27;;;;;;;3.22;2.92;;;18.80;56.20;;;;;;5125242;28;20203;-74
2021/05/04 11:12:54;;;;;;;3.33;3.13;;;18.70;58.20;;;;;;5124061;28;20199;-70
2021/05/04 11:15:23;;;;;;;3.50;2.70;;;19.00;57.90;;;;;;5123190;28;20205;-70
2021/05/04 11:17:49;;;;;;;3.47;3.20;;;19.20;57.30;;;;;;5123092;28;20206;-70
2021/05/04 11:20:33;;;;;;;4.45;3.15;;;19.60;58.20;;;;;;5124381;28;20286;-70
2021/05/04 11:23:00;;;;;;;3.15;2.92;;;19.60;57.20;;;;;;5118346;28;20222;-71
2021/05/04 11:25:34;;;;;;;3.13;2.83;;;19.30;58.10;;;;;;5121214;28;20616;-72
2021/05/04 11:28:03;;;;;;;3.75;2.75;;;19.20;58.20;;;;;;5119376;28;20203;-71
2021/05/04 11:30:35;;;;;;;5.63;3.30;;;19.40;59.40;;;;;;5131167;27;20207;-71
2021/05/04 11:33:26;;;;;;;3.70;3.40;;;19.70;56.80;;;;;;5115184;27;20200;-72
2021/05/04 11:35:54;;;;;;;3.43;3.17;;;19.70;57.50;;;;;;5116033;27;20199;-72
2021/05/04 11:38:21;;;;;;;3.33;3.03;;;19.60;56.20;;;;;;5122938;28;20663;-72
2021/05/04 11:40:48;;;;;;;3.42;3.13;;;19.40;55.70;;;;;;5119490;28;20748;-72
2021/05/04 11:43:16;;;;;;;3.25;2.70;;;19.40;57.10;;;;;;5117469;27;20198;-71
2021/05/04 11:45:42;;;;;;;3.30;2.92;;;19.00;56.50;;;;;;5126626;27;20278;-71
2021/05/04 11:48:10;;;;;;;2.78;2.53;;;18.90;58.60;;;;;;5125183;27;20763;-73
2021/05/04 11:50:38;;;;;;;3.78;3.45;;;19.00;58.50;;;;;;5126581;27;20234;-71
2021/05/04 11:53:07;;;;;;;3.25;3.00;;;19.30;58.40;;;;;;5125816;27;20203;-74
2021/05/04 11:55:35;;;;;;;2.55;2.35;;;19.40;56.90;;;;;;5112091;27;20199;-71
2021/05/04 11:58:03;;;;;;;5.53;3.20;;;18.80;56.80;;;;;;5124526;27;20204;-72
2021/05/04 12:00:33;;;;;;;3.20;3.00;;;18.90;57.40;;;;;;5122360;27;20199;-72
2021/05/04 12:03:05;;;;;;;3.83;3.53;;;19.20;58.10;;;;;;5126649;27;20284;-73
2021/05/04 12:05:35;;;;;;;3.05;2.85;;;19.60;57.70;;;;;;5124813;27;20659;-73
2021/05/04 12:08:03;;;;;;;3.53;3.22;;;19.10;56.90;;;;;;5125080;27;20214;-73
2021/05/04 12:10:32;;;;;;;3.63;3.10;;;18.70;57.50;;;;;;5133604;27;20210;-73
2021/05/04 12:13:02;;;;;;;3.10;2.90;;;18.40;58.10;;;;;;5124202;27;20600;-71
2021/05/04 12:15:32;;;;;;;3.50;3.20;;;18.20;58.20;;;;;;5126268;27;20211;-72
2021/05/04 12:18:12;;;;;;;3.72;3.03;;;18.30;58.60;;;;;;5122073;27;20203;-73
2021/05/04 12:20:41;;;;;;;3.15;2.83;;;18.30;58.30;;;;;;5127364;27;20199;-71
2021/05/04 12:23:09;;;;;;;3.20;2.83;;;18.10;59.00;;;;;;5124393;27;20696;-72
2021/05/04 12:25:42;;;;;;;2.97;2.58;;;18.00;57.80;;;;;;5125552;27;20930;-75
2021/05/04 12:28:15;;;;;;;2.85;2.60;;;17.90;58.70;;;;;;5124573;27;20199;-71
2021/05/04 12:30:44;;;;;;;3.22;2.95;;;17.70;58.40;;;;;;5122797;27;20652;-73
2021/05/04 12:33:11;;;;;;;3.45;3.15;;;17.40;58.60;;;;;;5123891;27;20286;-71
2021/05/04 12:35:47;;;;;;;2.67;2.55;;;17.20;59.00;;;;;;5121908;27;20192;-71
2021/05/04 12:38:17;;;;;;;3.38;3.00;;;17.20;59.30;;;;;;5123154;27;20768;-71
2021/05/04 12:40:56;;;;;;;3.15;2.95;;;17.30;59.90;;;;;;5128152;27;20752;-71
2021/05/04 12:43:26;;;;;;;6.07;3.40;;;17.50;61.30;;;;;;5127882;27;20210;-72
2021/05/04 12:46:12;;;;;;;2.97;2.65;;;17.80;60.30;;;;;;5123588;27;20199;-72
2021/05/04 12:48:41;;;;;;;3.58;3.17;;;18.00;59.10;;;;;;5125015;27;20202;-71
2021/05/04 12:51:10;;;;;;;2.92;2.72;;;18.20;60.10;;;;;;5126513;27;20203;-71
2021/05/04 12:53:40;;;;;;;3.72;3.33;;;18.50;61.00;;;;;;5123284;27;20207;-73
2021/05/04 12:56:15;;;;;;;3.00;2.80;;;18.40;61.70;;;;;;5125922;27;20241;-71
2021/05/04 12:58:56;;;;;;;3.30;3.00;;;18.30;61.80;;;;;;5125011;27;20202;-71